sensor_id;sensor_type;location;lat;lon;timestamp;temperature;humidity
22383;DHT22;11359;45.802;13.530;2022-12-18T00:01:01;14.90;32.80
22383;DHT22;11359;45.802;13.530;2022-12-18T00:03:34;14.80;33.10
22383;DHT22;11359;45.802;13.530;2022-12-18T00:06:00;14.80;33.30
22383;DHT22;11359;45.802;13.530;2022-12-18T00:08:25;14.80;33.40
22383;DHT22;11359;45.802;13.530;2022-12-18T00:10:51;14.70;33.30
22383;DHT22;11359;45.802;13.530;2022-12-18T00:13:16;14.60;33.40
22383;DHT22;11359;45.802;13.530;2022-12-18T00:15:42;14.60;33.60
22383;DHT22;11359;45.802;13.530;2022-12-18T00:18:08;14.60;33.50
22383;DHT22;11359;45.802;13.530;2022-12-18T00:20:37;14.50;33.70
22383;DHT22;11359;45.802;13.530;2022-12-18T00:23:03;14.50;33.80
22383;DHT22;11359;45.802;13.530;2022-12-18T00:25:29;14.50;33.60
22383;DHT22;11359;45.802;13.530;2022-12-18T00:27:54;14.40;33.60
22383;DHT22;11359;45.802;13.530;2022-12-18T00:30:20;14.30;33.70
22383;DHT22;11359;45.802;13.530;2022-12-18T00:32:45;14.30;33.90
22383;DHT22;11359;45.802;13.530;2022-12-18T00:35:11;14.30;34.10
22383;DHT22;11359;45.802;13.530;2022-12-18T00:37:37;14.20;34.00
22383;DHT22;11359;45.802;13.530;2022-12-18T00:40:02;14.20;34.20
22383;DHT22;11359;45.802;13.530;2022-12-18T00:42:28;14.10;34.40
22383;DHT22;11359;45.802;13.530;2022-12-18T00:45:12;14.10;34.50
22383;DHT22;11359;45.802;13.530;2022-12-18T00:47:38;14.10;34.60
22383;DHT22;11359;45.802;13.530;2022-12-18T00:50:04;14.00;34.60
22383;DHT22;11359;45.802;13.530;2022-12-18T00:52:29;14.00;34.70
22383;DHT22;11359;45.802;13.530;2022-12-18T00:54:55;13.90;34.80
22383;DHT22;11359;45.802;13.530;2022-12-18T00:57:20;13.90;34.90
22383;DHT22;11359;45.802;13.530;2022-12-18T00:59:46;13.90;35.00
22383;DHT22;11359;45.802;13.530;2022-12-18T01:02:14;13.80;35.00
22383;DHT22;11359;45.802;13.530;2022-12-18T01:04:40;13.80;35.00
22383;DHT22;11359;45.802;13.530;2022-12-18T01:07:05;13.80;35.00
22383;DHT22;11359;45.802;13.530;2022-12-18T01:09:31;13.70;35.00
22383;DHT22;11359;45.802;13.530;2022-12-18T01:11:57;13.70;35.10
22383;DHT22;11359;45.802;13.530;2022-12-18T01:14:22;13.60;35.10
22383;DHT22;11359;45.802;13.530;2022-12-18T01:16:48;13.60;35.20
22383;DHT22;11359;45.802;13.530;2022-12-18T01:19:13;13.60;35.30
22383;DHT22;11359;45.802;13.530;2022-12-18T01:21:39;13.50;35.40
22383;DHT22;11359;45.802;13.530;2022-12-18T01:24:04;13.50;35.50
22383;DHT22;11359;45.802;13.530;2022-12-18T01:26:30;13.40;35.60
22383;DHT22;11359;45.802;13.530;2022-12-18T01:28:56;13.40;35.80
22383;DHT22;11359;45.802;13.530;2022-12-18T01:31:26;13.40;35.90
22383;DHT22;11359;45.802;13.530;2022-12-18T01:33:52;13.40;35.90
22383;DHT22;11359;45.802;13.530;2022-12-18T01:36:19;13.40;36.00
22383;DHT22;11359;45.802;13.530;2022-12-18T01:38:46;13.40;36.00
22383;DHT22;11359;45.802;13.530;2022-12-18T01:41:12;13.30;36.00
22383;DHT22;11359;45.802;13.530;2022-12-18T01:43:44;13.20;36.00
22383;DHT22;11359;45.802;13.530;2022-12-18T01:46:10;13.20;36.00
22383;DHT22;11359;45.802;13.530;2022-12-18T01:48:36;13.10;36.10
22383;DHT22;11359;45.802;13.530;2022-12-18T01:51:02;13.10;36.10
22383;DHT22;11359;45.802;13.530;2022-12-18T01:53:28;13.10;36.20
22383;DHT22;11359;45.802;13.530;2022-12-18T01:55:55;13.00;36.30
22383;DHT22;11359;45.802;13.530;2022-12-18T01:58:25;13.00;36.40
22383;DHT22;11359;45.802;13.530;2022-12-18T02:00:53;13.00;37.10
22383;DHT22;11359;45.802;13.530;2022-12-18T02:03:19;12.90;36.60
22383;DHT22;11359;45.802;13.530;2022-12-18T02:08:12;12.90;36.80
22383;DHT22;11359;45.802;13.530;2022-12-18T02:15:31;12.80;36.80
22383;DHT22;11359;45.802;13.530;2022-12-18T02:18:04;12.80;36.90
22383;DHT22;11359;45.802;13.530;2022-12-18T02:23:44;12.70;37.00
22383;DHT22;11359;45.802;13.530;2022-12-18T02:28:26;12.70;37.00
22383;DHT22;11359;45.802;13.530;2022-12-18T02:30:53;12.60;36.90
22383;DHT22;11359;45.802;13.530;2022-12-18T02:33:20;12.60;36.90
22383;DHT22;11359;45.802;13.530;2022-12-18T02:35:46;12.60;37.00
22383;DHT22;11359;45.802;13.530;2022-12-18T02:38:13;12.50;37.10
22383;DHT22;11359;45.802;13.530;2022-12-18T02:40:39;12.50;37.20
22383;DHT22;11359;45.802;13.530;2022-12-18T02:43:13;12.50;37.30
22383;DHT22;11359;45.802;13.530;2022-12-18T02:45:46;12.40;37.30
22383;DHT22;11359;45.802;13.530;2022-12-18T02:48:11;12.40;37.30
22383;DHT22;11359;45.802;13.530;2022-12-18T02:50:38;12.40;37.40
22383;DHT22;11359;45.802;13.530;2022-12-18T02:55:45;12.30;37.50
22383;DHT22;11359;45.802;13.530;2022-12-18T02:58:16;12.30;37.60
22383;DHT22;11359;45.802;13.530;2022-12-18T03:00:46;12.30;37.60
22383;DHT22;11359;45.802;13.530;2022-12-18T03:03:19;12.20;37.50
22383;DHT22;11359;45.802;13.530;2022-12-18T03:05:50;12.20;37.50
22383;DHT22;11359;45.802;13.530;2022-12-18T03:08:30;12.20;37.60
22383;DHT22;11359;45.802;13.530;2022-12-18T03:10:58;12.10;37.60
22383;DHT22;11359;45.802;13.530;2022-12-18T03:13:36;12.10;37.70
22383;DHT22;11359;45.802;13.530;2022-12-18T03:16:02;12.00;37.70
22383;DHT22;11359;45.802;13.530;2022-12-18T03:20:53;12.00;37.80
22383;DHT22;11359;45.802;13.530;2022-12-18T03:23:21;11.90;37.90
22383;DHT22;11359;45.802;13.530;2022-12-18T03:25:48;11.90;37.90
22383;DHT22;11359;45.802;13.530;2022-12-18T03:28:19;11.90;37.90
22383;DHT22;11359;45.802;13.530;2022-12-18T03:30:45;11.80;38.00
22383;DHT22;11359;45.802;13.530;2022-12-18T03:33:14;11.80;38.00
22383;DHT22;11359;45.802;13.530;2022-12-18T03:35:43;11.80;38.10
22383;DHT22;11359;45.802;13.530;2022-12-18T03:38:09;11.80;38.10
22383;DHT22;11359;45.802;13.530;2022-12-18T03:43:08;11.70;38.10
22383;DHT22;11359;45.802;13.530;2022-12-18T03:45:41;11.70;38.20
22383;DHT22;11359;45.802;13.530;2022-12-18T03:48:09;11.70;38.20
22383;DHT22;11359;45.802;13.530;2022-12-18T03:55:32;11.60;38.30
22383;DHT22;11359;45.802;13.530;2022-12-18T03:58:00;11.60;38.40
22383;DHT22;11359;45.802;13.530;2022-12-18T04:00:27;11.60;38.40
22383;DHT22;11359;45.802;13.530;2022-12-18T04:02:54;11.50;38.40
22383;DHT22;11359;45.802;13.530;2022-12-18T04:05:20;11.50;38.40
22383;DHT22;11359;45.802;13.530;2022-12-18T04:07:47;11.50;38.40
22383;DHT22;11359;45.802;13.530;2022-12-18T04:10:13;11.50;38.40
22383;DHT22;11359;45.802;13.530;2022-12-18T04:12:39;11.50;38.30
22383;DHT22;11359;45.802;13.530;2022-12-18T04:15:05;11.50;38.40
22383;DHT22;11359;45.802;13.530;2022-12-18T04:17:31;11.40;38.40
22383;DHT22;11359;45.802;13.530;2022-12-18T04:19:56;11.40;38.50
22383;DHT22;11359;45.802;13.530;2022-12-18T04:22:22;11.40;38.60
22383;DHT22;11359;45.802;13.530;2022-12-18T04:24:48;11.40;38.60
22383;DHT22;11359;45.802;13.530;2022-12-18T04:27:13;11.30;38.60
22383;DHT22;11359;45.802;13.530;2022-12-18T04:29:39;11.30;38.60
22383;DHT22;11359;45.802;13.530;2022-12-18T04:32:05;11.30;38.70
22383;DHT22;11359;45.802;13.530;2022-12-18T04:34:30;11.30;38.70
22383;DHT22;11359;45.802;13.530;2022-12-18T04:36:56;11.30;38.80
22383;DHT22;11359;45.802;13.530;2022-12-18T04:39:21;11.20;38.80
22383;DHT22;11359;45.802;13.530;2022-12-18T04:41:47;11.20;38.90
22383;DHT22;11359;45.802;13.530;2022-12-18T04:44:13;11.20;38.90
22383;DHT22;11359;45.802;13.530;2022-12-18T04:46:38;11.20;39.00
22383;DHT22;11359;45.802;13.530;2022-12-18T04:49:04;11.20;39.70
22383;DHT22;11359;45.802;13.530;2022-12-18T04:51:29;11.20;39.10
22383;DHT22;11359;45.802;13.530;2022-12-18T04:53:55;11.10;39.10
22383;DHT22;11359;45.802;13.530;2022-12-18T04:56:20;11.10;39.10
22383;DHT22;11359;45.802;13.530;2022-12-18T04:58:46;11.10;39.20
22383;DHT22;11359;45.802;13.530;2022-12-18T05:01:12;11.10;39.30
22383;DHT22;11359;45.802;13.530;2022-12-18T05:03:38;11.10;39.30
22383;DHT22;11359;45.802;13.530;2022-12-18T05:06:04;11.00;39.30
22383;DHT22;11359;45.802;13.530;2022-12-18T05:08:30;11.10;39.30
22383;DHT22;11359;45.802;13.530;2022-12-18T05:10:59;11.00;39.40
22383;DHT22;11359;45.802;13.530;2022-12-18T05:13:25;11.00;39.40
22383;DHT22;11359;45.802;13.530;2022-12-18T05:15:51;11.00;39.50
22383;DHT22;11359;45.802;13.530;2022-12-18T05:18:17;11.00;39.60
22383;DHT22;11359;45.802;13.530;2022-12-18T05:20:43;11.00;39.70
22383;DHT22;11359;45.802;13.530;2022-12-18T05:23:08;11.00;39.80
22383;DHT22;11359;45.802;13.530;2022-12-18T05:25:34;11.00;40.00
22383;DHT22;11359;45.802;13.530;2022-12-18T05:27:59;11.00;40.00
22383;DHT22;11359;45.802;13.530;2022-12-18T05:30:25;11.00;40.00
22383;DHT22;11359;45.802;13.530;2022-12-18T05:32:50;11.00;40.00
22383;DHT22;11359;45.802;13.530;2022-12-18T05:35:16;11.00;40.00
22383;DHT22;11359;45.802;13.530;2022-12-18T05:37:42;11.00;40.00
22383;DHT22;11359;45.802;13.530;2022-12-18T05:40:07;11.10;40.20
22383;DHT22;11359;45.802;13.530;2022-12-18T05:42:33;11.10;40.20
22383;DHT22;11359;45.802;13.530;2022-12-18T05:44:59;11.10;40.30
22383;DHT22;11359;45.802;13.530;2022-12-18T05:47:24;11.10;40.30
22383;DHT22;11359;45.802;13.530;2022-12-18T05:49:50;11.20;40.40
22383;DHT22;11359;45.802;13.530;2022-12-18T05:52:15;11.20;40.40
22383;DHT22;11359;45.802;13.530;2022-12-18T05:54:41;11.30;40.50
22383;DHT22;11359;45.802;13.530;2022-12-18T05:57:06;11.40;40.50
22383;DHT22;11359;45.802;13.530;2022-12-18T05:59:32;11.30;40.40
22383;DHT22;11359;45.802;13.530;2022-12-18T06:01:57;11.50;40.60
22383;DHT22;11359;45.802;13.530;2022-12-18T06:04:23;11.50;40.50
22383;DHT22;11359;45.802;13.530;2022-12-18T06:06:48;11.50;40.50
22383;DHT22;11359;45.802;13.530;2022-12-18T06:09:14;11.60;40.60
22383;DHT22;11359;45.802;13.530;2022-12-18T06:11:39;11.70;40.60
22383;DHT22;11359;45.802;13.530;2022-12-18T06:14:05;11.80;40.60
22383;DHT22;11359;45.802;13.530;2022-12-18T06:16:31;11.80;40.50
22383;DHT22;11359;45.802;13.530;2022-12-18T06:19:01;11.90;40.50
22383;DHT22;11359;45.802;13.530;2022-12-18T06:21:27;11.90;40.50
22383;DHT22;11359;45.802;13.530;2022-12-18T06:23:53;12.00;40.50
22383;DHT22;11359;45.802;13.530;2022-12-18T06:26:18;12.10;40.50
22383;DHT22;11359;45.802;13.530;2022-12-18T06:28:44;12.10;40.40
22383;DHT22;11359;45.802;13.530;2022-12-18T06:31:10;12.20;40.40
22383;DHT22;11359;45.802;13.530;2022-12-18T06:33:35;12.30;40.40
22383;DHT22;11359;45.802;13.530;2022-12-18T06:36:09;12.30;40.30
22383;DHT22;11359;45.802;13.530;2022-12-18T06:38:35;12.40;40.30
22383;DHT22;11359;45.802;13.530;2022-12-18T06:41:06;12.50;40.20
22383;DHT22;11359;45.802;13.530;2022-12-18T06:43:31;12.60;40.30
22383;DHT22;11359;45.802;13.530;2022-12-18T06:45:58;12.60;40.20
22383;DHT22;11359;45.802;13.530;2022-12-18T06:48:24;12.70;40.20
22383;DHT22;11359;45.802;13.530;2022-12-18T06:50:49;12.80;40.20
22383;DHT22;11359;45.802;13.530;2022-12-18T06:53:15;12.90;40.20
22383;DHT22;11359;45.802;13.530;2022-12-18T06:55:40;13.00;40.10
22383;DHT22;11359;45.802;13.530;2022-12-18T06:58:06;13.00;40.00
22383;DHT22;11359;45.802;13.530;2022-12-18T07:00:31;13.10;39.80
22383;DHT22;11359;45.802;13.530;2022-12-18T07:02:57;13.20;39.80
22383;DHT22;11359;45.802;13.530;2022-12-18T07:05:23;13.30;39.70
22383;DHT22;11359;45.802;13.530;2022-12-18T07:07:48;13.30;39.60
22383;DHT22;11359;45.802;13.530;2022-12-18T07:10:14;13.30;39.50
22383;DHT22;11359;45.802;13.530;2022-12-18T07:12:39;13.40;39.60
22383;DHT22;11359;45.802;13.530;2022-12-18T07:15:05;13.50;39.50
22383;DHT22;11359;45.802;13.530;2022-12-18T07:17:31;13.50;39.40
22383;DHT22;11359;45.802;13.530;2022-12-18T07:19:56;13.60;39.30
22383;DHT22;11359;45.802;13.530;2022-12-18T07:22:22;13.70;39.30
22383;DHT22;11359;45.802;13.530;2022-12-18T07:24:47;13.70;39.20
22383;DHT22;11359;45.802;13.530;2022-12-18T07:27:13;13.80;39.20
22383;DHT22;11359;45.802;13.530;2022-12-18T07:29:38;13.80;39.00
22383;DHT22;11359;45.802;13.530;2022-12-18T07:32:04;13.90;39.00
22383;DHT22;11359;45.802;13.530;2022-12-18T07:34:29;14.00;39.00
22383;DHT22;11359;45.802;13.530;2022-12-18T07:36:55;14.00;39.00
22383;DHT22;11359;45.802;13.530;2022-12-18T07:39:21;14.10;38.90
22383;DHT22;11359;45.802;13.530;2022-12-18T07:41:46;14.10;38.90
22383;DHT22;11359;45.802;13.530;2022-12-18T07:44:32;14.20;38.90
22383;DHT22;11359;45.802;13.530;2022-12-18T07:46:57;14.30;38.80
22383;DHT22;11359;45.802;13.530;2022-12-18T07:49:23;14.30;38.70
22383;DHT22;11359;45.802;13.530;2022-12-18T07:51:48;14.40;38.60
22383;DHT22;11359;45.802;13.530;2022-12-18T07:54:14;14.50;38.50
22383;DHT22;11359;45.802;13.530;2022-12-18T07:56:40;14.50;38.40
22383;DHT22;11359;45.802;13.530;2022-12-18T07:59:05;14.60;38.40
22383;DHT22;11359;45.802;13.530;2022-12-18T08:01:31;14.60;38.30
22383;DHT22;11359;45.802;13.530;2022-12-18T08:03:57;14.70;38.30
22383;DHT22;11359;45.802;13.530;2022-12-18T08:06:22;14.70;38.30
22383;DHT22;11359;45.802;13.530;2022-12-18T08:08:48;14.80;38.40
22383;DHT22;11359;45.802;13.530;2022-12-18T08:11:13;14.80;38.30
22383;DHT22;11359;45.802;13.530;2022-12-18T08:13:39;14.90;38.30
22383;DHT22;11359;45.802;13.530;2022-12-18T08:16:05;15.00;38.30
22383;DHT22;11359;45.802;13.530;2022-12-18T08:18:32;15.00;38.20
22383;DHT22;11359;45.802;13.530;2022-12-18T08:20:57;15.10;38.20
22383;DHT22;11359;45.802;13.530;2022-12-18T08:23:23;15.10;38.10
22383;DHT22;11359;45.802;13.530;2022-12-18T08:25:48;15.20;38.00
22383;DHT22;11359;45.802;13.530;2022-12-18T08:28:15;15.20;37.90
22383;DHT22;11359;45.802;13.530;2022-12-18T08:30:40;15.20;37.70
22383;DHT22;11359;45.802;13.530;2022-12-18T08:33:06;15.30;37.60
22383;DHT22;11359;45.802;13.530;2022-12-18T08:35:34;15.30;37.70
22383;DHT22;11359;45.802;13.530;2022-12-18T08:38:00;15.40;37.70
22383;DHT22;11359;45.802;13.530;2022-12-18T08:40:25;15.40;37.70
22383;DHT22;11359;45.802;13.530;2022-12-18T08:42:51;15.50;37.80
22383;DHT22;11359;45.802;13.530;2022-12-18T08:45:35;15.50;37.80
22383;DHT22;11359;45.802;13.530;2022-12-18T08:48:00;15.50;37.60
22383;DHT22;11359;45.802;13.530;2022-12-18T08:50:26;15.60;37.70
22383;DHT22;11359;45.802;13.530;2022-12-18T08:52:51;15.60;37.60
22383;DHT22;11359;45.802;13.530;2022-12-18T08:55:17;15.70;37.60
22383;DHT22;11359;45.802;13.530;2022-12-18T08:57:42;15.70;37.50
22383;DHT22;11359;45.802;13.530;2022-12-18T09:00:08;15.70;37.30
22383;DHT22;11359;45.802;13.530;2022-12-18T09:02:34;15.70;37.20
22383;DHT22;11359;45.802;13.530;2022-12-18T09:04:59;15.80;37.10
22383;DHT22;11359;45.802;13.530;2022-12-18T09:07:25;15.80;37.00
22383;DHT22;11359;45.802;13.530;2022-12-18T09:09:50;15.70;36.90
22383;DHT22;11359;45.802;13.530;2022-12-18T09:12:16;15.70;36.80
22383;DHT22;11359;45.802;13.530;2022-12-18T09:14:41;15.70;36.70
22383;DHT22;11359;45.802;13.530;2022-12-18T09:17:07;15.70;36.80
22383;DHT22;11359;45.802;13.530;2022-12-18T09:19:33;15.70;36.60
22383;DHT22;11359;45.802;13.530;2022-12-18T09:21:58;15.70;36.70
22383;DHT22;11359;45.802;13.530;2022-12-18T09:24:24;15.70;36.80
22383;DHT22;11359;45.802;13.530;2022-12-18T09:26:52;15.70;36.80
22383;DHT22;11359;45.802;13.530;2022-12-18T09:29:18;15.70;36.80
22383;DHT22;11359;45.802;13.530;2022-12-18T09:31:43;15.60;36.60
22383;DHT22;11359;45.802;13.530;2022-12-18T09:34:09;15.60;36.70
22383;DHT22;11359;45.802;13.530;2022-12-18T09:36:34;15.60;36.50
22383;DHT22;11359;45.802;13.530;2022-12-18T09:39:00;15.60;36.40
22383;DHT22;11359;45.802;13.530;2022-12-18T09:43:52;15.50;36.30
22383;DHT22;11359;45.802;13.530;2022-12-18T09:46:20;15.50;36.30
22383;DHT22;11359;45.802;13.530;2022-12-18T09:48:50;15.50;36.20
22383;DHT22;11359;45.802;13.530;2022-12-18T09:51:27;15.40;36.10
22383;DHT22;11359;45.802;13.530;2022-12-18T09:54:05;15.40;35.90
22383;DHT22;11359;45.802;13.530;2022-12-18T09:56:31;15.30;35.90
22383;DHT22;11359;45.802;13.530;2022-12-18T09:59:00;15.30;36.00
22383;DHT22;11359;45.802;13.530;2022-12-18T10:01:26;15.20;36.10
22383;DHT22;11359;45.802;13.530;2022-12-18T10:03:52;15.20;36.00
22383;DHT22;11359;45.802;13.530;2022-12-18T10:14:13;15.10;36.20
22383;DHT22;11359;45.802;13.530;2022-12-18T10:26:38;15.00;36.20
22383;DHT22;11359;45.802;13.530;2022-12-18T10:29:12;14.90;36.10
22383;DHT22;11359;45.802;13.530;2022-12-18T10:31:38;14.90;36.20
22383;DHT22;11359;45.802;13.530;2022-12-18T10:34:03;14.80;36.90
22383;DHT22;11359;45.802;13.530;2022-12-18T10:36:29;14.80;36.50
22383;DHT22;11359;45.802;13.530;2022-12-18T10:38:59;14.80;36.40
22383;DHT22;11359;45.802;13.530;2022-12-18T10:41:39;14.80;36.50
22383;DHT22;11359;45.802;13.530;2022-12-18T10:44:20;14.70;36.50
22383;DHT22;11359;45.802;13.530;2022-12-18T10:46:46;14.70;36.50
22383;DHT22;11359;45.802;13.530;2022-12-18T10:49:32;14.70;36.40
22383;DHT22;11359;45.802;13.530;2022-12-18T10:52:20;14.70;36.50
22383;DHT22;11359;45.802;13.530;2022-12-18T10:54:48;14.60;36.30
22383;DHT22;11359;45.802;13.530;2022-12-18T10:59:53;14.60;36.60
22383;DHT22;11359;45.802;13.530;2022-12-18T11:02:27;14.60;36.70
22383;DHT22;11359;45.802;13.530;2022-12-18T11:04:53;14.50;36.80
22383;DHT22;11359;45.802;13.530;2022-12-18T11:07:18;14.50;36.70
22383;DHT22;11359;45.802;13.530;2022-12-18T11:09:44;14.50;36.70
22383;DHT22;11359;45.802;13.530;2022-12-18T11:12:24;14.50;36.70
22383;DHT22;11359;45.802;13.530;2022-12-18T11:14:51;14.50;36.90
22383;DHT22;11359;45.802;13.530;2022-12-18T11:17:38;14.50;36.90
22383;DHT22;11359;45.802;13.530;2022-12-18T11:20:04;14.40;36.80
22383;DHT22;11359;45.802;13.530;2022-12-18T11:22:31;14.40;36.90
22383;DHT22;11359;45.802;13.530;2022-12-18T11:27:26;14.40;37.00
22383;DHT22;11359;45.802;13.530;2022-12-18T11:29:52;14.40;36.90
22383;DHT22;11359;45.802;13.530;2022-12-18T11:32:29;14.40;37.00
22383;DHT22;11359;45.802;13.530;2022-12-18T11:37:46;14.40;37.20
22383;DHT22;11359;45.802;13.530;2022-12-18T11:40:14;14.40;37.30
22383;DHT22;11359;45.802;13.530;2022-12-18T11:42:52;14.50;37.30
22383;DHT22;11359;45.802;13.530;2022-12-18T11:52:57;14.50;37.50
22383;DHT22;11359;45.802;13.530;2022-12-18T11:58:42;14.70;37.40
22383;DHT22;11359;45.802;13.530;2022-12-18T12:00:47;14.70;37.40
22383;DHT22;11359;45.802;13.530;2022-12-18T12:08:24;14.80;37.20
22383;DHT22;11359;45.802;13.530;2022-12-18T12:10:57;14.80;37.30
22383;DHT22;11359;45.802;13.530;2022-12-18T12:20:55;15.10;37.50
22383;DHT22;11359;45.802;13.530;2022-12-18T12:23:30;15.20;37.50
22383;DHT22;11359;45.802;13.530;2022-12-18T12:26:12;15.20;37.40
22383;DHT22;11359;45.802;13.530;2022-12-18T12:36:46;15.50;36.90
22383;DHT22;11359;45.802;13.530;2022-12-18T12:39:16;15.50;36.90
22383;DHT22;11359;45.802;13.530;2022-12-18T12:41:43;15.50;36.60
22383;DHT22;11359;45.802;13.530;2022-12-18T12:44:48;15.60;36.70
22383;DHT22;11359;45.802;13.530;2022-12-18T12:47:16;15.60;36.60
22383;DHT22;11359;45.802;13.530;2022-12-18T12:49:44;15.70;36.50
22383;DHT22;11359;45.802;13.530;2022-12-18T12:52:15;15.70;36.50
22383;DHT22;11359;45.802;13.530;2022-12-18T12:54:41;15.80;36.50
22383;DHT22;11359;45.802;13.530;2022-12-18T12:57:09;15.80;36.40
22383;DHT22;11359;45.802;13.530;2022-12-18T13:02:04;15.90;36.30
22383;DHT22;11359;45.802;13.530;2022-12-18T13:12:35;16.10;36.00
22383;DHT22;11359;45.802;13.530;2022-12-18T13:15:23;16.10;36.00
22383;DHT22;11359;45.802;13.530;2022-12-18T13:17:49;16.10;36.10
22383;DHT22;11359;45.802;13.530;2022-12-18T13:20:32;16.20;35.90
22383;DHT22;11359;45.802;13.530;2022-12-18T13:22:58;16.20;36.00
22383;DHT22;11359;45.802;13.530;2022-12-18T13:25:30;16.30;36.00
22383;DHT22;11359;45.802;13.530;2022-12-18T13:38:20;16.50;42.30
22383;DHT22;11359;45.802;13.530;2022-12-18T13:48:16;16.60;45.90
22383;DHT22;11359;45.802;13.530;2022-12-18T13:50:42;16.60;46.50
22383;DHT22;11359;45.802;13.530;2022-12-18T13:53:12;16.60;47.30
22383;DHT22;11359;45.802;13.530;2022-12-18T13:55:43;16.70;48.10
22383;DHT22;11359;45.802;13.530;2022-12-18T13:58:11;16.70;48.60
22383;DHT22;11359;45.802;13.530;2022-12-18T14:00:41;16.70;49.00
22383;DHT22;11359;45.802;13.530;2022-12-18T14:03:23;16.70;49.50
22383;DHT22;11359;45.802;13.530;2022-12-18T14:05:53;16.80;50.00
22383;DHT22;11359;45.802;13.530;2022-12-18T14:08:19;16.80;50.50
22383;DHT22;11359;45.802;13.530;2022-12-18T14:10:46;16.80;50.80
22383;DHT22;11359;45.802;13.530;2022-12-18T14:13:23;16.80;51.20
22383;DHT22;11359;45.802;13.530;2022-12-18T14:15:49;16.80;51.50
22383;DHT22;11359;45.802;13.530;2022-12-18T14:18:22;16.80;51.70
22383;DHT22;11359;45.802;13.530;2022-12-18T14:20:49;16.90;51.90
22383;DHT22;11359;45.802;13.530;2022-12-18T14:23:28;16.90;52.30
22383;DHT22;11359;45.802;13.530;2022-12-18T14:25:54;16.90;52.50
22383;DHT22;11359;45.802;13.530;2022-12-18T14:28:20;16.90;52.80
22383;DHT22;11359;45.802;13.530;2022-12-18T14:30:47;16.90;53.00
22383;DHT22;11359;45.802;13.530;2022-12-18T14:35:43;16.90;53.30
22383;DHT22;11359;45.802;13.530;2022-12-18T14:40:46;16.90;53.00
22383;DHT22;11359;45.802;13.530;2022-12-18T14:43:14;16.90;53.40
22383;DHT22;11359;45.802;13.530;2022-12-18T14:45:41;16.90;53.60
22383;DHT22;11359;45.802;13.530;2022-12-18T14:48:08;16.90;54.00
22383;DHT22;11359;45.802;13.530;2022-12-18T14:50:34;16.90;54.60
22383;DHT22;11359;45.802;13.530;2022-12-18T14:52:59;16.90;55.00
22383;DHT22;11359;45.802;13.530;2022-12-18T14:55:25;16.90;55.20
22383;DHT22;11359;45.802;13.530;2022-12-18T14:57:54;17.00;55.30
22383;DHT22;11359;45.802;13.530;2022-12-18T15:00:22;17.00;55.30
22383;DHT22;11359;45.802;13.530;2022-12-18T15:02:50;17.00;55.30
22383;DHT22;11359;45.802;13.530;2022-12-18T15:05:25;17.10;55.40
22383;DHT22;11359;45.802;13.530;2022-12-18T15:07:51;17.10;55.40
22383;DHT22;11359;45.802;13.530;2022-12-18T15:10:24;17.10;55.50
22383;DHT22;11359;45.802;13.530;2022-12-18T15:18:01;17.10;55.60
22383;DHT22;11359;45.802;13.530;2022-12-18T15:20:27;17.10;55.30
22383;DHT22;11359;45.802;13.530;2022-12-18T15:22:53;17.10;55.20
22383;DHT22;11359;45.802;13.530;2022-12-18T15:27:56;17.20;55.20
22383;DHT22;11359;45.802;13.530;2022-12-18T15:30:22;17.20;55.00
22383;DHT22;11359;45.802;13.530;2022-12-18T15:32:48;17.20;54.60
22383;DHT22;11359;45.802;13.530;2022-12-18T15:35:20;17.10;54.50
22383;DHT22;11359;45.802;13.530;2022-12-18T15:37:46;17.10;54.30
22383;DHT22;11359;45.802;13.530;2022-12-18T15:40:16;17.10;54.30
22383;DHT22;11359;45.802;13.530;2022-12-18T15:42:42;17.10;55.00
22383;DHT22;11359;45.802;13.530;2022-12-18T15:45:26;17.10;54.30
22383;DHT22;11359;45.802;13.530;2022-12-18T15:47:52;17.10;54.00
22383;DHT22;11359;45.802;13.530;2022-12-18T15:50:18;17.10;53.70
22383;DHT22;11359;45.802;13.530;2022-12-18T15:52:44;17.10;53.50
22383;DHT22;11359;45.802;13.530;2022-12-18T15:55:11;17.10;53.90
22383;DHT22;11359;45.802;13.530;2022-12-18T15:57:56;17.10;53.10
22383;DHT22;11359;45.802;13.530;2022-12-18T16:00:21;17.10;53.00
22383;DHT22;11359;45.802;13.530;2022-12-18T16:02:47;17.10;52.90
22383;DHT22;11359;45.802;13.530;2022-12-18T16:05:13;17.00;52.60
22383;DHT22;11359;45.802;13.530;2022-12-18T16:07:40;17.00;52.50
22383;DHT22;11359;45.802;13.530;2022-12-18T16:10:05;17.00;52.00
22383;DHT22;11359;45.802;13.530;2022-12-18T16:12:31;17.00;51.70
22383;DHT22;11359;45.802;13.530;2022-12-18T16:14:57;17.00;51.40
22383;DHT22;11359;45.802;13.530;2022-12-18T16:17:22;17.00;51.30
22383;DHT22;11359;45.802;13.530;2022-12-18T16:19:48;17.00;51.20
22383;DHT22;11359;45.802;13.530;2022-12-18T16:22:17;16.90;50.80
22383;DHT22;11359;45.802;13.530;2022-12-18T16:24:43;16.90;50.70
22383;DHT22;11359;45.802;13.530;2022-12-18T16:27:09;16.90;50.80
22383;DHT22;11359;45.802;13.530;2022-12-18T16:29:35;16.90;50.80
22383;DHT22;11359;45.802;13.530;2022-12-18T16:32:00;16.90;50.30
22383;DHT22;11359;45.802;13.530;2022-12-18T16:34:30;16.90;50.30
22383;DHT22;11359;45.802;13.530;2022-12-18T16:36:57;16.90;50.40
22383;DHT22;11359;45.802;13.530;2022-12-18T16:39:23;16.90;49.10
22383;DHT22;11359;45.802;13.530;2022-12-18T16:41:49;16.80;49.00
22383;DHT22;11359;45.802;13.530;2022-12-18T16:44:14;16.80;48.80
22383;DHT22;11359;45.802;13.530;2022-12-18T16:46:40;16.80;48.70
22383;DHT22;11359;45.802;13.530;2022-12-18T16:49:11;16.80;48.70
22383;DHT22;11359;45.802;13.530;2022-12-18T16:51:37;16.80;48.40
22383;DHT22;11359;45.802;13.530;2022-12-18T16:54:02;16.80;47.30
22383;DHT22;11359;45.802;13.530;2022-12-18T16:56:28;16.80;47.60
22383;DHT22;11359;45.802;13.530;2022-12-18T16:58:55;16.80;47.70
22383;DHT22;11359;45.802;13.530;2022-12-18T17:01:22;16.70;47.40
22383;DHT22;11359;45.802;13.530;2022-12-18T17:03:51;16.70;47.40
22383;DHT22;11359;45.802;13.530;2022-12-18T17:06:18;16.70;47.30
22383;DHT22;11359;45.802;13.530;2022-12-18T17:08:43;16.70;47.30
22383;DHT22;11359;45.802;13.530;2022-12-18T17:11:09;16.70;46.90
22383;DHT22;11359;45.802;13.530;2022-12-18T17:13:35;16.70;47.10
22383;DHT22;11359;45.802;13.530;2022-12-18T17:16:03;16.70;46.10
22383;DHT22;11359;45.802;13.530;2022-12-18T17:18:29;16.70;45.60
22383;DHT22;11359;45.802;13.530;2022-12-18T17:20:59;16.70;45.70
22383;DHT22;11359;45.802;13.530;2022-12-18T17:23:25;16.70;46.00